Virden, Canada
Current Conditions -  °F | °C
As of 7:00 PM on Monday 26 Jan 2015 (Local Time) from CYBR Reporting Station
Broken Clouds Broken Clouds  
Wind Chill: 28°   Ceiling: 11000
Heat Index: 28°   Visibility: 15mi
Dew Point: 27°   Wind: 2mph
Humidity: 93%   Direction: 300°WNW
Pressure: 29.92"   Gusts: NA
Location:  49.84°N, 100.93°W
Report Text: CYBR 270100Z 30002KT 15SM BKN110 M02/M03 A2992 RMK AC5 SLP155
Loading
Personal Weather Stations






























Interactive Weather Map New forecast layout! Learn more

10-Day Weather Forecast

Advertisements
Track Severe Weather on mobile